LMML Airport Information

Runway Information
Runway 05 Length 7799 ft width 148 ft
Elevation 297 ft Threshold 0 ft Heading 56
Runway 23 Length 7799 ft Width 148 ft
Elevation 247 ft Threshold 0 ft Heading 236
Runway 13 Length 11627 ft width 197 ft
Elevation 256 ft Threshold 0 ft Heading 135
Runway 31 Length 11627 ft Width 197 ft
Elevation 230 ft Threshold 620 ft Heading 315
Airport Frequencies
Type APP Name APP Frequency 128.15 MHZ
Type Distance R Name Frequency 130.975 MHZ
Type Ground Name Ground Frequency 121.6 MHZ
Type Leaving Name Frequency 123.625 MHZ
Type Runway Name Runway Frequency 138.1 MHZ
Type Volmet Name Frequency 126.8 MHZ
Type Weather Name WX Frequency 127.4 MHZ
Airport Navaids
Type DME Name Malta Frequency 110500 KHZ
Type DME Name Luqa Frequency 109700 KHZ
Type NDB Name Luqa Frequency 416 KHZ
Type NDB Name Malta Frequency 395 KHZ
Airport Weather Information & NOTAM
ADDS - METARS form results

(0756 UTC 22 May 2018)
 
METAR text: LMML 220745Z 12012KT 9999 FEW010 OVC013 21/18 Q1013 NOSIG
Conditions at: LMML (LUQA/MALTA , MT) observed 0745 UTC 22 May 2018
Temperature: 21.0°C (70°F)
Dewpoint: 18.0°C (64°F) [RH = 83%]
Pressure (altimeter): 29.91 inches Hg (1013.0 mb)
Winds: from the ESE (120 degrees) at 14 MPH (12 knots; 6.2 m/s)
Visibility: 6 or more miles (10+ km)
Ceiling: 1300 feet AGL
Clouds: few clouds at 1000 feet AGL
overcast cloud deck at 1300 feet AGL
Weather: no significant weather observed at this time

METAR text: LMML 220715Z 11013KT 9999 FEW010 BKN014 21/18 Q1013 NOSIG
Conditions at: LMML (LUQA/MALTA , MT) observed 0715 UTC 22 May 2018
Temperature: 21.0°C (70°F)
Dewpoint: 18.0°C (64°F) [RH = 83%]
Pressure (altimeter): 29.91 inches Hg (1013.0 mb)
Winds: from the ESE (110 degrees) at 15 MPH (13 knots; 6.8 m/s)
Visibility: 6 or more miles (10+ km)
Ceiling: 1400 feet AGL
Clouds: few clouds at 1000 feet AGL
broken clouds at 1400 feet AGL
Weather: no significant weather observed at this time